createdAt,value
2018-09-20T00:00:02.774Z,4
2018-09-20T00:05:02.884Z,4
2018-09-20T00:10:03.642Z,4
2018-09-20T00:15:03.271Z,3
2018-09-20T00:20:03.018Z,3
2018-09-20T00:25:02.572Z,3
2018-09-20T00:30:03.223Z,3
2018-09-20T00:35:02.686Z,3
2018-09-20T00:40:03.472Z,2
2018-09-20T00:45:03.106Z,3
2018-09-20T00:50:02.635Z,2
2018-09-20T00:55:03.172Z,3
2018-09-20T01:00:03.011Z,2
2018-09-20T01:05:02.593Z,2
2018-09-20T01:10:03.320Z,2
2018-09-20T01:15:02.937Z,2
2018-09-20T01:20:02.619Z,0
2018-09-20T01:25:03.221Z,3
2018-09-20T01:30:02.911Z,2
2018-09-20T01:35:02.558Z,1
2018-09-20T01:40:03.305Z,0
2018-09-20T01:45:02.949Z,2
2018-09-20T01:50:02.540Z,2
2018-09-20T01:55:03.115Z,0
2018-09-20T02:00:03.033Z,2
2018-09-20T02:05:02.622Z,2
2018-09-20T02:10:03.392Z,2
2018-09-20T02:15:03.097Z,2
2018-09-20T02:20:02.867Z,2
2018-09-20T02:25:03.558Z,0
2018-09-20T02:30:03.323Z,0
2018-09-20T02:35:02.975Z,0
2018-09-20T02:40:02.801Z,3
2018-09-20T02:45:03.424Z,4
2018-09-20T02:50:03.048Z,3
2018-09-20T02:55:02.807Z,2
2018-09-20T03:00:03.985Z,3
2018-09-20T03:05:02.631Z,3
2018-09-20T03:10:03.312Z,3
2018-09-20T03:15:02.956Z,4
2018-09-20T03:20:02.789Z,3
2018-09-20T03:25:03.458Z,3
2018-09-20T03:30:03.143Z,3
2018-09-20T03:35:02.868Z,6
2018-09-20T03:40:03.627Z,5
2018-09-20T03:45:03.337Z,3
2018-09-20T03:50:03.026Z,5
2018-09-20T03:55:02.696Z,5
2018-09-20T04:00:03.421Z,3
2018-09-20T04:05:03.008Z,3
2018-09-20T04:10:02.743Z,4
2018-09-20T04:15:03.493Z,3
2018-09-20T04:20:03.169Z,2
2018-09-20T04:25:02.836Z,4
2018-09-20T04:30:02.967Z,4
2018-09-20T04:35:02.666Z,2
2018-09-20T04:40:03.432Z,4
2018-09-20T04:45:02.995Z,4
2018-09-20T04:50:02.554Z,4
2018-09-20T04:55:03.529Z,1
2018-09-20T05:00:03.832Z,2
2018-09-20T05:05:02.758Z,3
2018-09-20T05:10:03.478Z,3
2018-09-20T05:15:03.211Z,3
2018-09-20T05:20:02.904Z,3
2018-09-20T05:25:03.520Z,4
2018-09-20T05:30:02.953Z,3
2018-09-20T05:35:02.599Z,2
2018-09-20T05:40:03.232Z,2
2018-09-20T05:45:02.814Z,2
2018-09-20T05:50:03.574Z,1
2018-09-20T05:55:03.224Z,2
2018-09-20T06:00:02.868Z,3
2018-09-20T06:05:03.560Z,2
2018-09-20T06:10:03.221Z,3
2018-09-20T06:15:03.002Z,3
2018-09-20T06:20:02.596Z,2
2018-09-20T06:25:03.317Z,2
2018-09-20T06:30:02.867Z,3
2018-09-20T06:35:03.535Z,3
2018-09-20T06:40:03.252Z,2
2018-09-20T06:45:02.920Z,5
2018-09-20T06:50:03.630Z,4
2018-09-20T06:55:03.197Z,2
2018-09-20T07:00:02.782Z,5
2018-09-20T07:05:03.378Z,5
2018-09-20T07:10:03.248Z,6
2018-09-20T07:15:02.896Z,4
2018-09-20T07:20:02.561Z,4
2018-09-20T07:25:03.325Z,6
2018-09-20T07:30:02.996Z,3
2018-09-20T07:35:02.597Z,4
2018-09-20T07:40:03.295Z,5
2018-09-20T07:45:02.904Z,5
2018-09-20T07:50:03.499Z,6
2018-09-20T07:55:03.140Z,5
2018-09-20T08:00:02.676Z,10
2018-09-20T08:05:03.358Z,5
2018-09-20T08:10:02.972Z,6
2018-09-20T08:15:02.648Z,8
2018-09-20T08:20:03.317Z,6
2018-09-20T08:25:02.863Z,5
2018-09-20T08:30:03.396Z,7
2018-09-20T08:35:03.014Z,5
2018-09-20T08:40:02.754Z,5
2018-09-20T08:45:03.400Z,3
2018-09-20T08:50:02.883Z,6
2018-09-20T08:55:03.521Z,7
2018-09-20T09:00:03.357Z,8
2018-09-20T09:05:03.002Z,8
2018-09-20T09:10:02.669Z,6
2018-09-20T09:15:03.261Z,7
2018-09-20T09:20:02.901Z,7
2018-09-20T09:25:02.588Z,10
2018-09-20T09:30:03.158Z,5
2018-09-20T09:35:02.772Z,11
2018-09-20T09:40:03.439Z,12
2018-09-20T09:45:02.999Z,7
2018-09-20T09:50:02.553Z,7
2018-09-20T09:55:03.166Z,6
2018-09-20T10:00:02.747Z,7
2018-09-20T10:05:03.340Z,11
2018-09-20T10:10:02.989Z,10
2018-09-20T10:15:02.561Z,7
2018-09-20T10:20:03.677Z,8
2018-09-20T10:25:02.619Z,8
2018-09-20T10:30:03.232Z,13
2018-09-20T10:35:02.832Z,12
2018-09-20T10:40:03.453Z,7
2018-09-20T10:45:03.004Z,10
2018-09-20T10:50:02.606Z,14
2018-09-20T10:55:03.408Z,8
2018-09-20T11:00:03.068Z,6
2018-09-20T11:05:02.717Z,12
2018-09-20T11:10:03.463Z,8
2018-09-20T11:15:02.999Z,8
2018-09-20T11:20:02.696Z,7
2018-09-20T11:25:03.296Z,11
2018-09-20T11:30:02.948Z,7
2018-09-20T11:35:02.698Z,7
2018-09-20T11:40:03.364Z,11
2018-09-20T11:45:02.921Z,8
2018-09-20T11:50:03.616Z,11
2018-09-20T11:55:03.123Z,8
2018-09-20T12:00:02.793Z,3
2018-09-20T12:05:03.468Z,7
2018-09-20T12:10:03.065Z,7
2018-09-20T12:15:02.623Z,10
2018-09-20T12:20:03.588Z,9
2018-09-20T12:25:02.626Z,7
2018-09-20T12:30:03.302Z,7
2018-09-20T12:35:02.897Z,8
2018-09-20T12:40:03.552Z,7
2018-09-20T12:45:03.181Z,10
2018-09-20T12:50:02.733Z,7
2018-09-20T12:55:03.384Z,8
2018-09-20T13:00:03.030Z,8
2018-09-20T13:05:02.684Z,7
2018-09-20T13:10:03.519Z,5
2018-09-20T13:15:03.440Z,10
2018-09-20T13:20:03.290Z,5
2018-09-20T13:25:03.088Z,9
2018-09-20T13:30:02.601Z,9
2018-09-20T13:35:03.194Z,6
2018-09-20T13:40:02.896Z,4
2018-09-20T13:45:03.431Z,10
2018-09-20T13:50:03.072Z,7
2018-09-20T13:55:02.672Z,8
2018-09-20T14:00:03.326Z,9
2018-09-20T14:05:02.927Z,7
2018-09-20T14:10:02.643Z,9
2018-09-20T14:15:03.155Z,9
2018-09-20T14:20:02.858Z,7
2018-09-20T14:25:03.484Z,9
2018-09-20T14:30:03.017Z,5
2018-09-20T14:35:02.670Z,5
2018-09-20T14:40:03.752Z,5
2018-09-20T14:45:03.355Z,8
2018-09-20T14:50:02.920Z,8
2018-09-20T14:55:03.425Z,7
2018-09-20T15:00:02.982Z,7
2018-09-20T15:05:02.607Z,5
2018-09-20T15:10:03.295Z,6
2018-09-20T15:15:03.204Z,7
2018-09-20T15:20:03.017Z,5
2018-09-20T15:25:02.680Z,6
2018-09-20T15:30:03.297Z,7
2018-09-20T15:35:02.829Z,6
2018-09-20T15:40:03.154Z,5
2018-09-20T15:45:03.001Z,4
2018-09-20T15:50:02.686Z,8
2018-09-20T15:55:03.320Z,7
2018-09-20T16:00:02.964Z,7
2018-09-20T16:05:02.574Z,4
2018-09-20T16:10:03.191Z,7
2018-09-20T16:15:02.791Z,5
2018-09-20T16:20:03.424Z,6
2018-09-20T16:25:03.025Z,6
2018-09-20T16:30:02.595Z,6
2018-09-20T16:35:03.150Z,7
2018-09-20T16:40:02.833Z,7
2018-09-20T16:45:03.518Z,4
2018-09-20T16:50:03.141Z,7
2018-09-20T16:55:02.667Z,5
2018-09-20T17:00:03.199Z,6
2018-09-20T17:05:02.973Z,3
2018-09-20T17:10:03.055Z,5
2018-09-20T17:15:03.619Z,3
2018-09-20T17:20:03.215Z,6
2018-09-20T17:25:02.997Z,5
2018-09-20T17:30:02.627Z,3
2018-09-20T17:35:03.177Z,3
2018-09-20T17:40:02.918Z,4
2018-09-20T17:45:02.545Z,3
2018-09-20T17:50:03.281Z,4
2018-09-20T17:55:02.892Z,5
2018-09-20T18:00:02.595Z,3
2018-09-20T18:05:03.409Z,2
2018-09-20T18:10:03.549Z,3
2018-09-20T18:15:03.476Z,2
2018-09-20T18:20:03.517Z,2
2018-09-20T18:25:03.152Z,3
2018-09-20T18:30:02.836Z,3
2018-09-20T18:35:03.474Z,0
2018-09-20T18:40:03.126Z,0
2018-09-20T18:45:02.796Z,0
2018-09-20T18:50:04.001Z,0
2018-09-20T18:55:02.921Z,0
2018-09-20T19:00:03.607Z,0
2018-09-20T19:05:03.290Z,0
2018-09-20T19:10:02.939Z,0
2018-09-20T19:15:02.636Z,1
2018-09-20T19:20:03.319Z,0
2018-09-20T19:25:02.924Z,0
2018-09-20T19:30:02.735Z,0
2018-09-20T19:35:03.389Z,0
2018-09-20T19:40:03.030Z,0
2018-09-20T19:45:02.679Z,0
2018-09-20T19:50:03.358Z,0
2018-09-20T19:55:03.367Z,0
2018-09-20T20:00:03.644Z,0
2018-09-20T20:05:03.252Z,0
2018-09-20T20:10:02.944Z,0
2018-09-20T20:15:03.527Z,2
2018-09-20T20:20:03.113Z,0
2018-09-20T20:25:02.749Z,0
2018-09-20T20:30:03.334Z,0
2018-09-20T20:35:02.993Z,0
2018-09-20T20:40:02.659Z,0
2018-09-20T20:45:03.613Z,0
2018-09-20T20:50:03.284Z,3
2018-09-20T20:55:03.008Z,3
2018-09-20T21:00:02.599Z,4
2018-09-20T21:05:03.111Z,6
2018-09-20T21:10:02.867Z,7
2018-09-20T21:15:03.551Z,6
2018-09-20T21:20:03.165Z,7
2018-09-20T21:25:02.874Z,5
2018-09-20T21:30:03.475Z,3
2018-09-20T21:35:03.183Z,4
2018-09-20T21:40:03.174Z,5
2018-09-20T21:45:02.687Z,3
2018-09-20T21:50:03.358Z,3
2018-09-20T21:55:02.896Z,2
2018-09-20T22:00:03.449Z,4
2018-09-20T22:05:03.399Z,3
2018-09-20T22:10:03.049Z,3
2018-09-20T22:15:02.673Z,3
2018-09-20T22:20:03.430Z,4
2018-09-20T22:25:03.087Z,4
2018-09-20T22:30:02.676Z,4
2018-09-20T22:35:03.360Z,3
2018-09-20T22:40:03.060Z,4
2018-09-20T22:45:02.767Z,3
2018-09-20T22:50:03.441Z,5
2018-09-20T22:55:02.987Z,3
2018-09-20T23:00:02.617Z,5
2018-09-20T23:05:03.493Z,5
2018-09-20T23:10:03.227Z,4
2018-09-20T23:15:02.970Z,3
2018-09-20T23:20:02.634Z,2
2018-09-20T23:25:03.266Z,3
2018-09-20T23:30:02.882Z,3
2018-09-20T23:35:03.480Z,5
2018-09-20T23:40:03.180Z,3
2018-09-20T23:45:02.760Z,4
2018-09-20T23:50:03.379Z,4
2018-09-20T23:55:03.012Z,3
